Flight Track Log - Related Links

Times and Time Zones

All times are in EDT time to prevent confusion due to time zone crossing. See the SWA1533 flight status page for this flight to view local times or setup timezone preferences in your user account.

Time Position Orientation Groundspeed Altitude Reporting Facility
EDT Latitude Longitude Course Direction KTS MPH feet Rate Location/Type
Thu 09:12:49 PM 39.1500 -76.7167 288° West 247 284 5,400  Level Potomac TRACON
Thu 09:13:49 PM 39.1833 -76.8000 297° West 276 318 8,500 2,705 Climbing Potomac TRACON
Thu 09:16:02 PM 39.1883 -77.0297 272° West 284 327 14,100 2,518 Climbing Washington Center
Thu 09:17:00 PM 39.0087 -77.3080 218° Southwest  Level FlightAware Approximate
Thu 09:17:02 PM 39.1533 -77.1494 249° West 318 366 16,600  Level Washington Center
Thu 09:18:02 PM 39.1183 -77.2744 250° West 348 400 19,700 2,800 Climbing Washington Center
Thu 09:19:02 PM 39.0811 -77.4019 249° West 375 432 22,200 2,250 Climbing Washington Center
Thu 09:20:02 PM 39.0500 -77.5186 251° West 386 444 24,200 1,950 Climbing Washington Center
Thu 09:21:02 PM 39.0081 -77.6700 250° West 405 466 26,100 1,785 Climbing Washington Center
Thu 09:22:03 PM 38.9703 -77.7969 249° West 417 480 27,800 1,736 Climbing Washington Center
Thu 09:23:03 PM 38.9303 -77.9372 250° West 427 491 29,600 1,700 Climbing Washington Center
Thu 09:24:03 PM 38.8919 -78.0747 250° West 422 486 31,200 1,450 Climbing Washington Center
Thu 09:25:03 PM 38.8536 -78.2119 250° West 422 486 32,500 1,412 Climbing Washington Center
Thu 09:26:02 PM 38.8439 -78.3717 266° West 422 486 34,000 1,664 Climbing Washington Center
Thu 09:27:02 PM 38.8489 -78.5050 273° West 413 475 35,800 1,500 Climbing Washington Center
Thu 09:28:02 PM 38.8475 -78.6489 269° West 413 475 37,000 1,100 Climbing Washington Center
Thu 09:29:02 PM 38.8439 -78.7900 268° West 401 461 38,000 496 Climbing Washington Center
Thu 09:30:03 PM 38.8442 -78.9314 270° West 401 461 38,000  Level Washington Center
Thu 09:31:02 PM 38.8400 -79.0778 268° West 401 461 38,000  Level Washington Center
Thu 09:32:02 PM 38.8381 -79.2164 269° West 401 461 38,000  Level Washington Center
Thu 09:33:03 PM 38.8358 -79.3547 269° West 401 461 38,000  Level Washington Center
Thu 09:34:03 PM 38.8333 -79.4958 269° West 401 461 38,000  Level Washington Center
Thu 09:35:03 PM 38.8342 -79.6586 270° West 410 472 38,000  Level Washington Center
Thu 09:36:02 PM 38.8319 -79.7864 269° West 410 472 38,000  Level Washington Center
Thu 09:37:02 PM 38.8269 -79.9219 267° West 397 457 38,000  Level Washington Center
Thu 09:38:31 PM 38.8203 -80.1306 268° West 388 447 38,000  Level Indianapolis Center
Thu 09:39:32 PM 38.8150 -80.2703 267° West 391 450 38,000  Level Indianapolis Center
Thu 09:40:34 PM 38.8111 -80.4083 268° West 389 448 38,000  Level Indianapolis Center
Thu 09:41:35 PM 38.8075 -80.5453 268° West 385 443 38,000  Level Indianapolis Center
Thu 09:42:36 PM 38.8036 -80.6828 268° West 387 445 38,000  Level Indianapolis Center
Thu 09:43:38 PM 38.7992 -80.8206 268° West 387 445 38,000  Level Indianapolis Center
Thu 09:44:39 PM 38.7953 -80.9600 268° West 392 451 38,000  Level Indianapolis Center
Thu 09:45:40 PM 38.7900 -81.0981 267° West 389 448 38,000  Level Indianapolis Center
Thu 09:46:42 PM 38.7853 -81.2364 268° West 390 449 38,000  Level Indianapolis Center
Thu 09:47:43 PM 38.7806 -81.4014 268° West 390 449 38,000  Level Indianapolis Center
Thu 09:48:45 PM 38.7733 -81.5461 266° West 392 451 38,000  Level Indianapolis Center
Thu 09:49:46 PM 38.7683 -81.6844 267° West 391 450 38,000  Level Indianapolis Center
Thu 09:50:47 PM 38.7644 -81.8103 268° West 392 451 38,000  Level Indianapolis Center
Thu 09:51:49 PM 38.7578 -81.9442 266° West 383 441 38,000  Level Indianapolis Center
Thu 09:52:50 PM 38.7517 -82.1067 267° West 381 438 38,000  Level Indianapolis Center
Thu 09:53:51 PM 38.7469 -82.2422 267° West 382 440 38,000  Level Indianapolis Center
Thu 09:54:52 PM 38.7414 -82.3758 267° West 378 435 38,000  Level Indianapolis Center
Thu 09:55:54 PM 38.7364 -82.5106 267° West 378 435 38,000  Level Indianapolis Center
Thu 09:56:55 PM 38.7300 -82.6478 267° West 385 443 38,000  Level Indianapolis Center
Thu 09:57:56 PM 38.7244 -82.7839 267° West 383 441 38,000  Level Indianapolis Center
Thu 09:58:58 PM 38.7186 -82.9183 267° West 380 437 38,000  Level Indianapolis Center
Thu 09:59:59 PM 38.7131 -83.0544 267° West 382 440 38,000 -49 Level Indianapolis Center
Thu 10:01:00 PM 38.7056 -83.1969 266° West 377 434 37,900 -49 Descending Indianapolis Center
Thu 10:02:02 PM 38.6992 -83.3314 267° West 375 432 37,900  Level Indianapolis Center
Thu 10:03:03 PM 38.6933 -83.4656 267° West 374 430 37,900  Level Indianapolis Center
Thu 10:04:04 PM 38.6867 -83.5997 266° West 374 430 37,900  Level Indianapolis Center
Thu 10:05:05 PM 38.6800 -83.7311 266° West 369 425 37,900  Level Indianapolis Center
Thu 10:06:07 PM 38.6731 -83.8617 266° West 365 420 37,900  Level Indianapolis Center
Thu 10:07:08 PM 38.6667 -83.9911 266° West 362 417 37,900  Level Indianapolis Center
Thu 10:08:09 PM 38.6592 -84.1217 266° West 363 418 37,900  Level Indianapolis Center
Thu 10:09:10 PM 38.6522 -84.2531 266° West 367 422 37,900  Level Indianapolis Center
Thu 10:10:11 PM 38.6531 -84.3850 271° West 371 427 37,900  Level Indianapolis Center
Thu 10:11:12 PM 38.6606 -84.5197 274° West 375 432 37,900 49 Level Indianapolis Center
Thu 10:12:13 PM 38.6686 -84.6789 274° West 377 434 38,000 49 Climbing Indianapolis Center
Thu 10:13:15 PM 38.6778 -84.8114 275° West 377 434 38,000  Level Indianapolis Center
Thu 10:14:16 PM 38.6853 -84.9386 274° West 377 434 38,000  Level Indianapolis Center
Thu 10:15:17 PM 38.6931 -85.0747 274° West 381 438 38,000  Level Indianapolis Center
Thu 10:16:18 PM 38.6994 -85.2117 273° West 384 442 38,000  Level Indianapolis Center
Thu 10:17:19 PM 38.7069 -85.3483 274° West 386 444 38,000  Level Indianapolis Center
Thu 10:18:20 PM 38.7147 -85.4864 274° West 387 445 38,000  Level Indianapolis Center
Thu 10:19:21 PM 38.7211 -85.6250 273° West 389 448 38,000  Level Indianapolis Center
Thu 10:20:22 PM 38.7275 -85.7619 273° West 386 444 38,000  Level Indianapolis Center
Thu 10:21:23 PM 38.7344 -85.9000 274° West 388 447 38,000  Level Indianapolis Center
Thu 10:22:24 PM 38.7411 -86.0386 274° West 391 450 38,000  Level Indianapolis Center
Thu 10:23:25 PM 38.7489 -86.2036 274° West 388 447 38,000  Level Indianapolis Center
Thu 10:24:27 PM 38.7547 -86.3425 273° West 389 448 38,000  Level Indianapolis Center
Thu 10:25:28 PM 38.7603 -86.4789 273° West 385 443 38,000  Level Indianapolis Center
Thu 10:26:29 PM 38.7658 -86.6153 273° West 384 442 38,000  Level Indianapolis Center
Thu 10:27:30 PM 38.7725 -86.7506 274° West 383 441 38,000  Level Indianapolis Center
Thu 10:28:31 PM 38.7769 -86.8881 272° West 387 445 38,000  Level Indianapolis Center
Thu 10:29:32 PM 38.7831 -87.0272 273° West 391 450 38,000  Level Indianapolis Center
Thu 10:30:33 PM 38.7881 -87.1658 273° West 392 451 38,000  Level Indianapolis Center
Thu 10:31:34 PM 38.7928 -87.3025 273° West 388 447 38,000  Level Indianapolis Center
Thu 10:32:35 PM 38.7969 -87.4411 272° West 391 450 38,000  Level Indianapolis Center
Thu 10:33:37 PM 38.8019 -87.5789 273° West 387 445 38,000  Level Indianapolis Center
Thu 10:34:38 PM 38.8064 -87.7456 272° West 390 449 38,000  Level Indianapolis Center
Thu 10:35:39 PM 38.8117 -87.8839 273° West 388 447 38,000  Level Indianapolis Center
Thu 10:36:15 PM 38.8136 -87.9689 272° West 388 447 38,000  Level Kansas City Center
Thu 10:37:19 PM 38.8178 -88.1108 272° West 393 452 38,000  Level Kansas City Center
Thu 10:38:19 PM 38.8208 -88.2522 272° West 395 455 38,000  Level Kansas City Center
Thu 10:39:20 PM 38.8247 -88.3967 272° West 399 459 38,000  Level Kansas City Center
Thu 10:40:21 PM 38.8292 -88.5422 272° West 404 465 38,000  Level Kansas City Center
Thu 10:41:22 PM 38.8303 -88.6853 271° West 406 467 38,000  Level Kansas City Center
Thu 10:42:23 PM 38.8350 -88.8319 272° West 409 471 38,000  Level Kansas City Center
Thu 10:43:27 PM 38.8378 -88.9917 271° West 410 472 38,000  Level Kansas City Center
Thu 10:44:27 PM 38.8422 -89.1497 272° West 413 475 38,000  Level Kansas City Center
Thu 10:45:28 PM 38.8461 -89.2964 272° West 412 474 38,000  Level Kansas City Center
Thu 10:46:28 PM 38.8483 -89.4436 271° West 413 475 38,000  Level Kansas City Center
Thu 10:47:32 PM 38.8506 -89.5897 271° West 412 474 38,000  Level Kansas City Center
Thu 10:48:30 PM 38.8522 -89.7367 271° West 409 471 38,000  Level Kansas City Center
Thu 10:49:33 PM 38.8536 -89.8833 271° West 411 473 38,000  Level Kansas City Center
Thu 10:50:35 PM 38.8572 -90.0397 272° West 407 468 38,000  Level Kansas City Center
Thu 10:51:35 PM 38.8600 -90.1867 271° West 409 471 38,000  Level Kansas City Center
Thu 10:52:36 PM 38.8619 -90.3336 271° West 411 473 38,000  Level Kansas City Center
Thu 10:53:40 PM 38.8625 -90.4800 270° West 408 470 38,000  Level Kansas City Center
Thu 10:54:40 PM 38.8431 -90.6206 260° West 396 456 38,000  Level Kansas City Center
Thu 10:55:41 PM 38.8244 -90.7631 261° West 395 455 38,000  Level Kansas City Center
Thu 10:56:42 PM 38.8061 -90.9044 261° West 400 460 38,000  Level Kansas City Center
Thu 10:57:44 PM 38.7867 -91.0472 260° West 406 467 38,000  Level Kansas City Center
Thu 10:58:44 PM 38.7678 -91.1875 260° West 405 466 38,000  Level Kansas City Center
Thu 10:59:44 PM 38.7494 -91.3242 260° West 398 458 38,000  Level Kansas City Center
Thu 11:00:47 PM 38.7311 -91.4592 260° West 392 451 38,000  Level Kansas City Center
Thu 11:01:47 PM 38.7086 -91.6222 260° West 389 448 38,000  Level Kansas City Center
Thu 11:02:50 PM 38.6908 -91.7581 261° West 385 443 38,000  Level Kansas City Center
Thu 11:03:51 PM 38.6714 -91.8928 260° West 385 443 38,000  Level Kansas City Center
Thu 11:04:52 PM 38.6544 -92.0314 261° West 389 448 38,000  Level Kansas City Center
Thu 11:05:53 PM 38.6353 -92.1686 260° West 393 452 38,000  Level Kansas City Center
Thu 11:06:55 PM 38.6161 -92.3056 260° West 393 452 38,000  Level Kansas City Center
Thu 11:07:55 PM 38.5972 -92.4403 260° West 389 448 38,000  Level Kansas City Center
Thu 11:08:56 PM 38.5783 -92.5761 260° West 389 448 38,000  Level Kansas City Center
Thu 11:09:58 PM 38.5594 -92.7125 260° West 389 448 38,000  Level Kansas City Center
Thu 11:10:57 PM 38.5400 -92.8533 260° West 397 457 38,000  Level Kansas City Center
Thu 11:12:00 PM 38.5200 -92.9919 260° West 398 458 38,000  Level Kansas City Center
Thu 11:13:01 PM 38.4958 -93.1586 260° West 399 459 38,000  Level Kansas City Center
Thu 11:14:01 PM 38.4756 -93.2947 259° West 393 452 38,000  Level Kansas City Center
Thu 11:15:01 PM 38.4564 -93.4317 260° West 392 451 38,000  Level Kansas City Center
Thu 11:16:03 PM 38.4358 -93.5689 259° West 393 452 38,000  Level Kansas City Center
Thu 11:17:03 PM 38.4139 -93.7075 259° West 396 456 38,000  Level Kansas City Center
Thu 11:18:07 PM 38.3936 -93.8450 259° West 396 456 38,000  Level Kansas City Center
Thu 11:19:08 PM 38.3722 -93.9844 259° West 398 458 38,000  Level Kansas City Center
Thu 11:20:09 PM 38.3533 -94.1142 260° West 395 455 38,000  Level Kansas City Center
Thu 11:21:10 PM 38.3289 -94.2686 259° West 396 456 38,000  Level Kansas City Center
Thu 11:22:11 PM 38.3075 -94.4017 258° West 397 457 38,000  Level Kansas City Center
Thu 11:23:12 PM 38.2836 -94.5567 259° West 399 459 38,000  Level Kansas City Center
Thu 11:24:11 PM 38.2622 -94.6894 258° West 399 459 38,000  Level Kansas City Center
Thu 11:25:12 PM 38.2411 -94.8217 259° West 398 458 38,000  Level Kansas City Center
Thu 11:26:15 PM 38.2161 -94.9772 258° West 399 459 38,000  Level Kansas City Center
Thu 11:27:16 PM 38.1958 -95.1117 259° West 401 461 38,000  Level Kansas City Center
Thu 11:28:18 PM 38.1736 -95.2444 258° West 402 463 38,000  Level Kansas City Center
Thu 11:29:19 PM 38.1483 -95.4008 258° West 403 464 38,000  Level Kansas City Center
Thu 11:30:19 PM 38.1258 -95.5358 258° West 405 466 38,000  Level Kansas City Center
Thu 11:31:20 PM 38.1039 -95.6694 258° West 405 466 38,000  Level Kansas City Center
Thu 11:32:19 PM 38.0775 -95.8239 258° West 401 461 38,000  Level Kansas City Center
Thu 11:33:23 PM 38.0544 -95.9586 258° West 400 460 38,000  Level Kansas City Center
Thu 11:34:23 PM 38.0325 -96.0872 258° West 397 457 38,000  Level Kansas City Center
Thu 11:35:24 PM 38.0097 -96.2203 258° West 399 459 38,000  Level Kansas City Center
Thu 11:36:25 PM 37.9864 -96.3561 258° West 396 456 38,000  Level Kansas City Center
Thu 11:37:27 PM 37.9583 -96.5192 258° West 395 455 38,000  Level Kansas City Center
Thu 11:38:28 PM 37.9333 -96.6536 257° West 393 452 38,000  Level Kansas City Center
Thu 11:39:29 PM 37.9097 -96.7892 258° West 394 453 38,000  Level Kansas City Center
Thu 11:40:30 PM 37.8853 -96.9253 257° West 395 455 38,000  Level Kansas City Center
Thu 11:41:31 PM 37.8608 -97.0606 257° West 394 453 38,000  Level Kansas City Center
Thu 11:42:32 PM 37.8364 -97.1981 257° West 399 459 38,000  Level Kansas City Center
Thu 11:43:33 PM 37.8108 -97.3339 257° West 398 458 38,000  Level Kansas City Center
Thu 11:44:33 PM 37.7867 -97.4653 257° West 398 458 38,000  Level Kansas City Center
Thu 11:45:35 PM 37.7600 -97.6033 256° West 401 461 38,000  Level Kansas City Center
Thu 11:46:36 PM 37.7353 -97.7417 257° West 403 464 38,000  Level Kansas City Center
Thu 11:47:38 PM 37.7044 -97.9064 257° West 401 461 38,000  Level Kansas City Center
Thu 11:48:37 PM 37.6778 -98.0439 256° West 403 464 38,000  Level Kansas City Center
Thu 11:49:37 PM 37.6567 -98.1644 258° West 395 455 38,000  Level Kansas City Center
Thu 11:50:41 PM 37.6306 -98.2981 256° West 392 451 38,000  Level Kansas City Center
Thu 11:51:41 PM 37.6028 -98.4322 255° West 393 452 38,000  Level Kansas City Center
Thu 11:52:42 PM 37.5772 -98.5658 256° West 392 451 38,000  Level Kansas City Center
Thu 11:53:44 PM 37.5517 -98.6981 256° West 389 448 38,000  Level Kansas City Center
Thu 11:54:44 PM 37.5258 -98.8311 256° West 391 450 38,000  Level Kansas City Center
Thu 11:55:44 PM 37.4922 -98.9897 255° West 390 449 38,000  Level Kansas City Center
Thu 11:56:47 PM 37.4661 -99.1236 256° West 394 453 38,000  Level Kansas City Center
Thu 11:57:48 PM 37.4400 -99.2575 256° West 393 452 38,000  Level Kansas City Center
Thu 11:58:48 PM 37.4131 -99.3914 256° West 395 455 38,000  Level Kansas City Center
Thu 11:59:49 PM 37.3869 -99.5178 255° West 390 449 38,000  Level Kansas City Center
Fri 12:00:49 AM 37.3575 -99.6633 256° West 386 444 38,000  Level Kansas City Center
Fri 12:01:50 AM 37.3308 -99.7894 255° West 388 447 38,000  Level Kansas City Center
Fri 12:02:52 AM 37.3053 -99.9136 256° West 384 442 38,000  Level Kansas City Center
Fri 12:03:54 AM 37.2747 -100.0586 255° West 384 442 38,000  Level Kansas City Center
Fri 12:04:54 AM 37.2494 -100.1833 256° West 384 442 38,000  Level Kansas City Center
Fri 12:05:56 AM 37.2231 -100.3072 255° West 384 442 38,000  Level Kansas City Center
Fri 12:06:57 AM 37.1925 -100.4525 255° West 384 442 38,000  Level Kansas City Center
Fri 12:07:58 AM 37.1656 -100.5781 255° West 386 444 38,000  Level Kansas City Center
Fri 12:08:59 AM 37.1389 -100.7031 255° West 387 445 38,000  Level Kansas City Center
Fri 12:09:59 AM 37.1064 -100.8517 255° West 392 451 38,000  Level Kansas City Center
Fri 12:10:59 AM 37.0786 -100.9781 255° West 392 451 38,000  Level Kansas City Center
Fri 12:12:00 AM 37.0506 -101.1050 255° West 394 453 38,000  Level Kansas City Center
Fri 12:13:02 AM 37.0194 -101.2528 255° West 393 452 38,000  Level Kansas City Center
Fri 12:14:03 AM 36.9903 -101.3789 254° West 393 452 38,000  Level Kansas City Center
Fri 12:15:02 AM 36.9619 -101.5061 254° West 395 455 38,000  Level Kansas City Center
Fri 12:16:06 AM 36.9286 -101.6531 254° West 395 455 38,000  Level Kansas City Center
Fri 12:17:06 AM 36.9000 -101.7800 254° West 394 453 38,000  Level Kansas City Center
Fri 12:18:07 AM 36.8719 -101.9058 254° West 394 453 38,000  Level Kansas City Center
Fri 12:19:08 AM 36.8389 -102.0539 254° West 395 455 38,000  Level Kansas City Center
Fri 12:20:07 AM 36.8097 -102.1772 254° West 390 449 38,000  Level Kansas City Center
Fri 12:21:20 AM 36.7744 -102.3331 254° West 392 451 38,000  Level Albuquerque Center
Fri 12:22:21 AM 36.7442 -102.4636 254° West 392 451 38,000  Level Albuquerque Center
Fri 12:23:22 AM 36.7131 -102.6033 255° West 400 460 38,000  Level Albuquerque Center
Fri 12:24:23 AM 36.6783 -102.7489 253° West 394 453 38,000  Level Albuquerque Center
Fri 12:25:24 AM 36.6492 -102.8747 254° West 395 455 38,000  Level Albuquerque Center
Fri 12:26:25 AM 36.6178 -103.0033 253° West 397 457 38,000  Level Albuquerque Center
Fri 12:27:26 AM 36.5864 -103.1364 254° West 397 457 38,000  Level Albuquerque Center
Fri 12:28:27 AM 36.5550 -103.2708 254° West 400 460 38,000  Level Albuquerque Center
Fri 12:29:28 AM 36.5228 -103.4031 253° West 399 459 38,000  Level Albuquerque Center
Fri 12:30:29 AM 36.4911 -103.5353 253° West 396 456 38,000  Level Albuquerque Center
Fri 12:31:30 AM 36.4592 -103.6667 253° West 396 456 38,000  Level Albuquerque Center
Fri 12:32:31 AM 36.4275 -103.7953 253° West 390 449 38,000  Level Albuquerque Center
Fri 12:33:32 AM 36.3903 -103.9458 253° West 390 449 38,000  Level Albuquerque Center
Fri 12:34:33 AM 36.3578 -104.0731 252° West 387 445 38,000  Level Albuquerque Center
Fri 12:35:34 AM 36.3253 -104.2025 253° West 389 448 38,000  Level Albuquerque Center
Fri 12:36:35 AM 36.2914 -104.3331 252° West 393 452 38,000  Level Albuquerque Center
Fri 12:37:36 AM 36.2589 -104.4628 253° West 394 453 38,000  Level Albuquerque Center
Fri 12:38:37 AM 36.2267 -104.5931 253° West 394 453 38,000  Level Albuquerque Center
Fri 12:39:38 AM 36.1939 -104.7225 253° West 393 452 38,000  Level Albuquerque Center
Fri 12:40:39 AM 36.1606 -104.8522 252° West 394 453 38,000  Level Albuquerque Center
Fri 12:41:39 AM 36.1261 -104.9847 252° West 400 460 38,000  Level Albuquerque Center
Fri 12:42:40 AM 36.0928 -105.1128 252° West 393 452 38,000  Level Albuquerque Center
Fri 12:43:41 AM 36.0611 -105.2408 253° West 390 449 38,000  Level Albuquerque Center
Fri 12:44:42 AM 36.0269 -105.3669 252° West 386 444 38,000  Level Albuquerque Center
Fri 12:45:43 AM 35.9936 -105.4928 252° West 384 442 38,000  Level Albuquerque Center
Fri 12:46:44 AM 35.9592 -105.6261 252° West 390 449 38,000  Level Albuquerque Center
Fri 12:47:45 AM 35.9247 -105.7561 252° West 396 456 38,000  Level Albuquerque Center
Fri 12:48:46 AM 35.8908 -105.8844 252° West 396 456 38,000  Level Albuquerque Center
Fri 12:49:47 AM 35.8561 -106.0133 252° West 396 456 38,000  Level Albuquerque Center
Fri 12:50:48 AM 35.8211 -106.1422 252° West 398 458 38,000  Level Albuquerque Center
Fri 12:51:48 AM 35.7883 -106.2722 253° West 398 458 38,000  Level Albuquerque Center
Fri 12:52:49 AM 35.7472 -106.4175 251° West 401 461 38,000  Level Albuquerque Center
Fri 12:53:50 AM 35.7147 -106.5422 252° West 400 460 38,000  Level Albuquerque Center
Fri 12:54:51 AM 35.6817 -106.6647 252° West 396 456 38,000  Level Albuquerque Center
Fri 12:55:52 AM 35.6406 -106.8092 251° West 399 459 38,000  Level Albuquerque Center
Fri 12:56:52 AM 35.6114 -106.9144 251° West 397 457 38,000  Level Albuquerque Center
Fri 12:57:53 AM 35.5689 -107.0708 252° West 404 465 38,000  Level Albuquerque Center
Fri 12:58:54 AM 35.5319 -107.2036 251° West 402 463 38,000  Level Albuquerque Center
Fri 12:59:55 AM 35.4972 -107.3269 251° West 401 461 38,000  Level Albuquerque Center
Fri 01:00:57 AM 35.4622 -107.4492 251° West 398 458 38,000  Level Albuquerque Center
Fri 01:01:58 AM 35.4222 -107.5914 251° West 396 456 38,000  Level Albuquerque Center
Fri 01:02:58 AM 35.3875 -107.7142 251° West 396 456 38,000  Level Albuquerque Center
Fri 01:03:59 AM 35.3528 -107.8378 251° West 399 459 38,000  Level Albuquerque Center
Fri 01:05:00 AM 35.3117 -107.9817 251° West 400 460 38,000  Level Albuquerque Center
Fri 01:06:01 AM 35.2750 -108.1056 250° West 402 463 38,000  Level Albuquerque Center
Fri 01:07:02 AM 35.2394 -108.2278 250° West 399 459 38,000  Level Albuquerque Center
Fri 01:08:02 AM 35.1983 -108.3711 251° West 399 459 38,000  Level Albuquerque Center
Fri 01:09:03 AM 35.1636 -108.4953 251° West 400 460 38,000 -148 Level Albuquerque Center
Fri 01:10:04 AM 35.1258 -108.6181 249° West 402 463 37,700 -689 Descending Albuquerque Center
Fri 01:11:05 AM 35.0853 -108.7619 251° West 401 461 36,600 -843 Descending Albuquerque Center
Fri 01:12:05 AM 35.0489 -108.8839 250° West 399 459 36,000 -298 Descending Albuquerque Center
Fri 01:13:06 AM 35.0117 -109.0064 250° West 400 460 36,000  Level Albuquerque Center
Fri 01:14:07 AM 34.9694 -109.1483 250° West 399 459 36,000  Level Albuquerque Center
Fri 01:15:08 AM 34.9272 -109.2667 247° West 398 458 36,000  Level Albuquerque Center
Fri 01:16:09 AM 34.8842 -109.3836 246° West 396 456 36,000  Level Albuquerque Center
Fri 01:17:09 AM 34.8331 -109.5189 245° Southwest 393 452 36,000  Level Albuquerque Center
Fri 01:18:10 AM 34.7892 -109.6361 246° West 395 455 36,000  Level Albuquerque Center
Fri 01:19:11 AM 34.7378 -109.7508 241° Southwest 400 460 36,000  Level Albuquerque Center
Fri 01:20:12 AM 34.6714 -109.8811 238° Southwest 404 465 36,000  Level Albuquerque Center
Fri 01:21:12 AM 34.6156 -109.9914 238° Southwest 402 463 36,000  Level Albuquerque Center
Fri 01:22:13 AM 34.5606 -110.1067 240° Southwest 413 475 36,000  Level Albuquerque Center
Fri 01:23:14 AM 34.4939 -110.2281 236° Southwest 393 452 36,000  Level Albuquerque Center
Fri 01:24:14 AM 34.4386 -110.3386 239° Southwest 396 456 36,000 -149 Level Albuquerque Center
Fri 01:25:15 AM 34.3803 -110.4622 240° Southwest 406 467 35,700 -1,672 Descending Albuquerque Center
Fri 01:26:16 AM 34.3208 -110.5750 237° Southwest 402 463 32,600 -2,705 Descending Albuquerque Center
Fri 01:27:17 AM 34.2625 -110.6847 237° Southwest 392 451 30,200 -2,331 Descending Albuquerque Center
Fri 01:28:17 AM 34.2017 -110.7900 235° Southwest 385 443 27,900 -2,182 Descending Albuquerque Center
Fri 01:29:18 AM 34.1506 -110.8911 239° Southwest 364 419 25,800 -2,115 Descending Albuquerque Center
Fri 01:30:19 AM 34.0964 -110.9950 238° Southwest 363 418 23,600 -2,182 Descending Albuquerque Center
Fri 01:31:19 AM 34.0439 -111.0975 238° Southwest 361 415 21,400 -2,132 Descending Albuquerque Center
Fri 01:32:20 AM 33.9906 -111.1967 237° Southwest 356 410 19,300 -2,164 Descending Albuquerque Center
Fri 01:33:21 AM 33.9383 -111.2967 238° Southwest 352 405 17,000 -1,736 Descending Albuquerque Center
Fri 01:34:21 AM 33.8881 -111.3917 237° Southwest 335 386 15,800 -1,289 Descending Albuquerque Center
Fri 01:35:22 AM 33.8436 -111.4767 238° Southwest 302 348 14,400 -1,488 Descending Albuquerque Center
Fri 01:36:22 AM 33.8008 -111.5589 238° Southwest 290 334 12,800 -1,587 Descending Albuquerque Center
Fri 01:37:23 AM 33.7583 -111.6400 238° Southwest 287 330 11,200 -1,377 Descending Albuquerque Center
Fri 01:38:24 AM 33.7150 -111.7200 237° Southwest 284 327 10,000 -595 Descending Albuquerque Center
Fri 01:39:24 AM 33.6711 -111.8006 237° Southwest 286 329 10,000 -397 Level Albuquerque Center
Fri 01:40:25 AM 33.6286 -111.8772 236° Southwest 275 316 9,200 -496 Descending Albuquerque Center
Fri 01:41:25 AM 33.5919 -111.9453 237° Southwest 245 282 9,000 -645 Descending Albuquerque Center
Fri 01:42:26 AM 33.5569 -112.0117 238° Southwest 236 272 7,900 -1,033 Descending Albuquerque Center
Fri 01:43:27 AM 33.5253 -112.0789 241° Southwest 232 267 6,900 -992 Descending Albuquerque Center
Fri 01:44:27 AM 33.5253 -112.1531 270° West 224 258 5,900 -1,091 Descending Albuquerque Center
Fri 01:45:28 AM 33.5103 -112.2181 255° West 221 254 4,700 -893 Descending Albuquerque Center
Fri 01:46:28 AM 33.4603 -112.1858 152° Southeast 217 250 4,100 -843 Descending Albuquerque Center
Fri 01:47:29 AM 33.4367 -112.1350 119° Southeast 179 206 3,000 -984 Descending Albuquerque Center
Fri 01:48:30 AM 33.4308 -112.0881 98° East 146 168 2,100 -793 Descending Albuquerque Center
Fri 01:49:30 AM 33.4314 -112.0439 89° East 134 154 1,400 -700 Descending Albuquerque Center

Login

Don't have an account? Register now (free) for customized features, flight alerts, and more!